sensor_id;sensor_type;location;lat;lon;timestamp;P1;durP1;ratioP1;P2;durP2;ratioP2
5758;SDS011;2904;48.788;9.196;2022-11-20T00:01:53;21.73;;;10.37;;
5758;SDS011;2904;48.788;9.196;2022-11-20T00:04:18;15.60;;;9.67;;
5758;SDS011;2904;48.788;9.196;2022-11-20T00:06:45;18.33;;;10.60;;
5758;SDS011;2904;48.788;9.196;2022-11-20T00:09:12;18.97;;;9.93;;
5758;SDS011;2904;48.788;9.196;2022-11-20T00:11:38;20.63;;;10.63;;
5758;SDS011;2904;48.788;9.196;2022-11-20T00:14:04;18.07;;;10.70;;
5758;SDS011;2904;48.788;9.196;2022-11-20T00:16:31;18.73;;;11.57;;
5758;SDS011;2904;48.788;9.196;2022-11-20T00:18:58;19.70;;;11.67;;
5758;SDS011;2904;48.788;9.196;2022-11-20T00:21:27;22.33;;;10.90;;
5758;SDS011;2904;48.788;9.196;2022-11-20T00:23:55;20.53;;;10.90;;
5758;SDS011;2904;48.788;9.196;2022-11-20T00:26:22;18.87;;;10.47;;
5758;SDS011;2904;48.788;9.196;2022-11-20T00:28:51;19.77;;;10.17;;
5758;SDS011;2904;48.788;9.196;2022-11-20T00:31:17;19.00;;;11.20;;
5758;SDS011;2904;48.788;9.196;2022-11-20T00:33:43;17.97;;;10.37;;
5758;SDS011;2904;48.788;9.196;2022-11-20T00:36:11;18.37;;;10.13;;
5758;SDS011;2904;48.788;9.196;2022-11-20T00:38:37;19.23;;;10.60;;
5758;SDS011;2904;48.788;9.196;2022-11-20T00:41:05;18.33;;;9.90;;
5758;SDS011;2904;48.788;9.196;2022-11-20T00:43:32;18.13;;;11.20;;
5758;SDS011;2904;48.788;9.196;2022-11-20T00:46:01;22.33;;;11.73;;
5758;SDS011;2904;48.788;9.196;2022-11-20T00:48:28;19.60;;;10.87;;
5758;SDS011;2904;48.788;9.196;2022-11-20T00:50:54;19.83;;;10.93;;
5758;SDS011;2904;48.788;9.196;2022-11-20T00:53:21;16.73;;;10.37;;
5758;SDS011;2904;48.788;9.196;2022-11-20T00:55:56;16.60;;;10.10;;
5758;SDS011;2904;48.788;9.196;2022-11-20T00:58:51;18.07;;;10.47;;
5758;SDS011;2904;48.788;9.196;2022-11-20T01:01:20;17.87;;;9.90;;
5758;SDS011;2904;48.788;9.196;2022-11-20T01:03:51;15.63;;;9.43;;
5758;SDS011;2904;48.788;9.196;2022-11-20T01:06:26;13.73;;;8.50;;
5758;SDS011;2904;48.788;9.196;2022-11-20T01:08:54;12.23;;;7.17;;
5758;SDS011;2904;48.788;9.196;2022-11-20T01:11:23;12.70;;;7.50;;
5758;SDS011;2904;48.788;9.196;2022-11-20T01:13:53;9.77;;;5.50;;
5758;SDS011;2904;48.788;9.196;2022-11-20T01:16:24;8.10;;;5.00;;
5758;SDS011;2904;48.788;9.196;2022-11-20T01:18:52;7.63;;;4.37;;
5758;SDS011;2904;48.788;9.196;2022-11-20T01:21:21;7.70;;;4.30;;
5758;SDS011;2904;48.788;9.196;2022-11-20T01:23:48;7.83;;;3.97;;
5758;SDS011;2904;48.788;9.196;2022-11-20T01:26:15;6.23;;;4.30;;
5758;SDS011;2904;48.788;9.196;2022-11-20T01:28:42;6.20;;;3.73;;
5758;SDS011;2904;48.788;9.196;2022-11-20T01:31:16;8.40;;;3.57;;
5758;SDS011;2904;48.788;9.196;2022-11-20T01:33:47;6.00;;;3.60;;
5758;SDS011;2904;48.788;9.196;2022-11-20T01:36:15;5.40;;;3.40;;
5758;SDS011;2904;48.788;9.196;2022-11-20T01:38:42;6.53;;;3.60;;
5758;SDS011;2904;48.788;9.196;2022-11-20T01:41:10;5.23;;;3.37;;
5758;SDS011;2904;48.788;9.196;2022-11-20T01:45:59;4.93;;;3.60;;
5758;SDS011;2904;48.788;9.196;2022-11-20T01:48:34;5.20;;;3.80;;
5758;SDS011;2904;48.788;9.196;2022-11-20T01:51:01;5.87;;;3.43;;
5758;SDS011;2904;48.788;9.196;2022-11-20T01:53:31;4.33;;;3.10;;
5758;SDS011;2904;48.788;9.196;2022-11-20T01:55:58;4.17;;;2.77;;
5758;SDS011;2904;48.788;9.196;2022-11-20T01:58:27;4.17;;;2.93;;
5758;SDS011;2904;48.788;9.196;2022-11-20T02:00:57;3.77;;;3.13;;
5758;SDS011;2904;48.788;9.196;2022-11-20T02:03:22;2.87;;;2.60;;
5758;SDS011;2904;48.788;9.196;2022-11-20T02:06:01;3.43;;;2.70;;
5758;SDS011;2904;48.788;9.196;2022-11-20T02:08:37;6.50;;;3.70;;
5758;SDS011;2904;48.788;9.196;2022-11-20T02:11:03;3.50;;;2.80;;
5758;SDS011;2904;48.788;9.196;2022-11-20T02:13:29;3.33;;;2.90;;
5758;SDS011;2904;48.788;9.196;2022-11-20T02:16:20;3.13;;;2.63;;
5758;SDS011;2904;48.788;9.196;2022-11-20T02:18:47;3.03;;;2.60;;
5758;SDS011;2904;48.788;9.196;2022-11-20T02:21:22;2.80;;;2.47;;
5758;SDS011;2904;48.788;9.196;2022-11-20T02:24:03;4.57;;;2.77;;
5758;SDS011;2904;48.788;9.196;2022-11-20T02:26:52;4.03;;;2.63;;
5758;SDS011;2904;48.788;9.196;2022-11-20T02:29:22;3.57;;;2.70;;
5758;SDS011;2904;48.788;9.196;2022-11-20T02:31:49;5.33;;;2.50;;
5758;SDS011;2904;48.788;9.196;2022-11-20T02:34:16;4.37;;;2.77;;
5758;SDS011;2904;48.788;9.196;2022-11-20T02:36:42;3.73;;;2.93;;
5758;SDS011;2904;48.788;9.196;2022-11-20T02:39:11;5.53;;;3.20;;
5758;SDS011;2904;48.788;9.196;2022-11-20T02:41:37;5.70;;;3.20;;
5758;SDS011;2904;48.788;9.196;2022-11-20T02:44:03;8.17;;;3.10;;
5758;SDS011;2904;48.788;9.196;2022-11-20T02:46:30;5.13;;;3.10;;
5758;SDS011;2904;48.788;9.196;2022-11-20T02:48:56;4.60;;;3.20;;
5758;SDS011;2904;48.788;9.196;2022-11-20T02:51:22;5.20;;;3.47;;
5758;SDS011;2904;48.788;9.196;2022-11-20T02:53:48;4.13;;;3.07;;
5758;SDS011;2904;48.788;9.196;2022-11-20T02:56:14;3.60;;;2.77;;
5758;SDS011;2904;48.788;9.196;2022-11-20T02:58:40;5.33;;;3.17;;
5758;SDS011;2904;48.788;9.196;2022-11-20T03:01:06;5.40;;;2.80;;
5758;SDS011;2904;48.788;9.196;2022-11-20T03:03:31;4.13;;;2.53;;
5758;SDS011;2904;48.788;9.196;2022-11-20T03:05:58;3.63;;;2.77;;
5758;SDS011;2904;48.788;9.196;2022-11-20T03:08:24;5.10;;;2.93;;
5758;SDS011;2904;48.788;9.196;2022-11-20T03:10:51;4.17;;;3.10;;
5758;SDS011;2904;48.788;9.196;2022-11-20T03:13:16;4.77;;;3.07;;
5758;SDS011;2904;48.788;9.196;2022-11-20T03:15:42;4.70;;;2.83;;
5758;SDS011;2904;48.788;9.196;2022-11-20T03:18:08;3.43;;;3.00;;
5758;SDS011;2904;48.788;9.196;2022-11-20T03:20:34;6.33;;;3.10;;
5758;SDS011;2904;48.788;9.196;2022-11-20T03:23:00;3.60;;;2.87;;
5758;SDS011;2904;48.788;9.196;2022-11-20T03:25:26;5.00;;;3.50;;
5758;SDS011;2904;48.788;9.196;2022-11-20T03:27:52;3.70;;;2.90;;
5758;SDS011;2904;48.788;9.196;2022-11-20T03:30:18;4.67;;;3.17;;
5758;SDS011;2904;48.788;9.196;2022-11-20T03:32:44;6.23;;;3.50;;
5758;SDS011;2904;48.788;9.196;2022-11-20T03:35:09;3.77;;;2.87;;
5758;SDS011;2904;48.788;9.196;2022-11-20T03:37:35;4.07;;;3.17;;
5758;SDS011;2904;48.788;9.196;2022-11-20T03:40:00;4.70;;;3.10;;
5758;SDS011;2904;48.788;9.196;2022-11-20T03:42:26;4.57;;;3.27;;
5758;SDS011;2904;48.788;9.196;2022-11-20T03:45:09;4.37;;;3.07;;
5758;SDS011;2904;48.788;9.196;2022-11-20T03:47:35;4.83;;;3.00;;
5758;SDS011;2904;48.788;9.196;2022-11-20T03:50:01;9.33;;;3.70;;
5758;SDS011;2904;48.788;9.196;2022-11-20T03:52:27;5.57;;;3.30;;
5758;SDS011;2904;48.788;9.196;2022-11-20T03:54:54;6.80;;;3.50;;
5758;SDS011;2904;48.788;9.196;2022-11-20T03:57:19;6.60;;;3.60;;
5758;SDS011;2904;48.788;9.196;2022-11-20T03:59:45;5.27;;;3.40;;
5758;SDS011;2904;48.788;9.196;2022-11-20T04:02:10;6.50;;;3.90;;
5758;SDS011;2904;48.788;9.196;2022-11-20T04:04:36;5.50;;;3.53;;
5758;SDS011;2904;48.788;9.196;2022-11-20T04:07:01;4.60;;;3.40;;
5758;SDS011;2904;48.788;9.196;2022-11-20T04:09:27;5.27;;;3.90;;
5758;SDS011;2904;48.788;9.196;2022-11-20T04:11:53;5.53;;;3.43;;
5758;SDS011;2904;48.788;9.196;2022-11-20T04:14:19;3.97;;;3.57;;
5758;SDS011;2904;48.788;9.196;2022-11-20T04:16:45;5.53;;;3.50;;
5758;SDS011;2904;48.788;9.196;2022-11-20T04:19:11;7.70;;;3.20;;
5758;SDS011;2904;48.788;9.196;2022-11-20T04:21:38;4.17;;;3.57;;
5758;SDS011;2904;48.788;9.196;2022-11-20T04:24:05;4.93;;;3.47;;
5758;SDS011;2904;48.788;9.196;2022-11-20T04:26:31;5.87;;;3.73;;
5758;SDS011;2904;48.788;9.196;2022-11-20T04:28:57;6.37;;;3.37;;
5758;SDS011;2904;48.788;9.196;2022-11-20T04:31:24;5.80;;;3.53;;
5758;SDS011;2904;48.788;9.196;2022-11-20T04:33:52;4.27;;;3.20;;
5758;SDS011;2904;48.788;9.196;2022-11-20T04:36:19;5.17;;;3.87;;
5758;SDS011;2904;48.788;9.196;2022-11-20T04:38:51;4.13;;;3.50;;
5758;SDS011;2904;48.788;9.196;2022-11-20T04:41:21;4.27;;;3.33;;
5758;SDS011;2904;48.788;9.196;2022-11-20T04:43:49;4.97;;;3.40;;
5758;SDS011;2904;48.788;9.196;2022-11-20T04:46:17;5.00;;;3.40;;
5758;SDS011;2904;48.788;9.196;2022-11-20T04:48:44;5.00;;;3.70;;
5758;SDS011;2904;48.788;9.196;2022-11-20T04:51:10;7.40;;;4.10;;
5758;SDS011;2904;48.788;9.196;2022-11-20T04:53:35;5.93;;;4.13;;
5758;SDS011;2904;48.788;9.196;2022-11-20T04:56:03;5.20;;;4.00;;
5758;SDS011;2904;48.788;9.196;2022-11-20T04:58:31;4.73;;;3.40;;
5758;SDS011;2904;48.788;9.196;2022-11-20T05:01:01;4.53;;;3.23;;
5758;SDS011;2904;48.788;9.196;2022-11-20T05:03:31;12.07;;;3.50;;
5758;SDS011;2904;48.788;9.196;2022-11-20T05:06:01;4.37;;;3.40;;
5758;SDS011;2904;48.788;9.196;2022-11-20T05:08:28;5.73;;;3.60;;
5758;SDS011;2904;48.788;9.196;2022-11-20T05:10:58;6.23;;;3.50;;
5758;SDS011;2904;48.788;9.196;2022-11-20T05:13:24;3.97;;;3.20;;
5758;SDS011;2904;48.788;9.196;2022-11-20T05:15:50;6.23;;;3.60;;
5758;SDS011;2904;48.788;9.196;2022-11-20T05:18:17;6.27;;;3.30;;
5758;SDS011;2904;48.788;9.196;2022-11-20T05:20:42;5.43;;;3.50;;
5758;SDS011;2904;48.788;9.196;2022-11-20T05:23:08;4.33;;;3.50;;
5758;SDS011;2904;48.788;9.196;2022-11-20T05:25:33;4.57;;;3.27;;
5758;SDS011;2904;48.788;9.196;2022-11-20T05:27:59;5.23;;;3.20;;
5758;SDS011;2904;48.788;9.196;2022-11-20T05:30:25;3.67;;;3.13;;
5758;SDS011;2904;48.788;9.196;2022-11-20T05:32:51;5.37;;;3.33;;
5758;SDS011;2904;48.788;9.196;2022-11-20T05:35:17;4.97;;;3.17;;
5758;SDS011;2904;48.788;9.196;2022-11-20T05:37:43;4.60;;;3.10;;
5758;SDS011;2904;48.788;9.196;2022-11-20T05:40:09;5.20;;;3.27;;
5758;SDS011;2904;48.788;9.196;2022-11-20T05:42:36;4.73;;;3.70;;
5758;SDS011;2904;48.788;9.196;2022-11-20T05:45:03;4.30;;;3.10;;
5758;SDS011;2904;48.788;9.196;2022-11-20T05:47:32;4.07;;;3.23;;
5758;SDS011;2904;48.788;9.196;2022-11-20T05:49:59;4.87;;;3.10;;
5758;SDS011;2904;48.788;9.196;2022-11-20T05:52:28;5.77;;;2.97;;
5758;SDS011;2904;48.788;9.196;2022-11-20T05:54:54;3.83;;;2.97;;
5758;SDS011;2904;48.788;9.196;2022-11-20T05:57:20;5.03;;;3.40;;
5758;SDS011;2904;48.788;9.196;2022-11-20T05:59:46;4.10;;;2.90;;
5758;SDS011;2904;48.788;9.196;2022-11-20T06:02:12;3.47;;;2.83;;
5758;SDS011;2904;48.788;9.196;2022-11-20T06:04:38;4.03;;;2.80;;
5758;SDS011;2904;48.788;9.196;2022-11-20T06:07:04;5.17;;;3.13;;
5758;SDS011;2904;48.788;9.196;2022-11-20T06:09:30;4.37;;;2.90;;
5758;SDS011;2904;48.788;9.196;2022-11-20T06:11:56;4.30;;;2.83;;
5758;SDS011;2904;48.788;9.196;2022-11-20T06:14:22;3.93;;;2.90;;
5758;SDS011;2904;48.788;9.196;2022-11-20T06:16:48;3.00;;;2.57;;
5758;SDS011;2904;48.788;9.196;2022-11-20T06:19:14;3.97;;;2.70;;
5758;SDS011;2904;48.788;9.196;2022-11-20T06:21:40;3.57;;;2.90;;
5758;SDS011;2904;48.788;9.196;2022-11-20T06:24:08;5.93;;;2.77;;
5758;SDS011;2904;48.788;9.196;2022-11-20T06:26:34;6.43;;;4.90;;
5758;SDS011;2904;48.788;9.196;2022-11-20T06:29:00;32.27;;;15.90;;
5758;SDS011;2904;48.788;9.196;2022-11-20T06:31:26;3.90;;;3.03;;
5758;SDS011;2904;48.788;9.196;2022-11-20T06:33:52;7.40;;;3.27;;
5758;SDS011;2904;48.788;9.196;2022-11-20T06:36:19;6.40;;;3.00;;
5758;SDS011;2904;48.788;9.196;2022-11-20T06:38:45;9.83;;;4.57;;
5758;SDS011;2904;48.788;9.196;2022-11-20T06:41:12;4.57;;;2.90;;
5758;SDS011;2904;48.788;9.196;2022-11-20T06:43:40;14.70;;;9.30;;
5758;SDS011;2904;48.788;9.196;2022-11-20T06:46:06;3.13;;;2.57;;
5758;SDS011;2904;48.788;9.196;2022-11-20T06:48:34;3.60;;;2.60;;
5758;SDS011;2904;48.788;9.196;2022-11-20T06:51:00;3.87;;;2.90;;
5758;SDS011;2904;48.788;9.196;2022-11-20T06:53:29;8.03;;;4.53;;
5758;SDS011;2904;48.788;9.196;2022-11-20T06:55:57;3.73;;;2.60;;
5758;SDS011;2904;48.788;9.196;2022-11-20T06:58:25;5.43;;;2.63;;
5758;SDS011;2904;48.788;9.196;2022-11-20T07:01:02;4.23;;;2.50;;
5758;SDS011;2904;48.788;9.196;2022-11-20T07:03:32;3.00;;;2.40;;
5758;SDS011;2904;48.788;9.196;2022-11-20T07:05:58;4.30;;;2.67;;
5758;SDS011;2904;48.788;9.196;2022-11-20T07:08:26;4.03;;;2.67;;
5758;SDS011;2904;48.788;9.196;2022-11-20T07:10:51;6.93;;;3.90;;
5758;SDS011;2904;48.788;9.196;2022-11-20T07:13:17;7.13;;;4.27;;
5758;SDS011;2904;48.788;9.196;2022-11-20T07:15:43;5.80;;;2.70;;
5758;SDS011;2904;48.788;9.196;2022-11-20T07:18:08;3.40;;;2.53;;
5758;SDS011;2904;48.788;9.196;2022-11-20T07:20:34;2.93;;;2.60;;
5758;SDS011;2904;48.788;9.196;2022-11-20T07:23:00;4.43;;;2.90;;
5758;SDS011;2904;48.788;9.196;2022-11-20T07:25:26;3.10;;;2.20;;
5758;SDS011;2904;48.788;9.196;2022-11-20T07:27:53;3.70;;;2.67;;
5758;SDS011;2904;48.788;9.196;2022-11-20T07:30:22;5.17;;;2.40;;
5758;SDS011;2904;48.788;9.196;2022-11-20T07:32:51;2.57;;;2.30;;
5758;SDS011;2904;48.788;9.196;2022-11-20T07:35:19;2.53;;;2.23;;
5758;SDS011;2904;48.788;9.196;2022-11-20T07:37:45;3.43;;;2.57;;
5758;SDS011;2904;48.788;9.196;2022-11-20T07:40:11;4.37;;;2.63;;
5758;SDS011;2904;48.788;9.196;2022-11-20T07:42:47;2.47;;;2.20;;
5758;SDS011;2904;48.788;9.196;2022-11-20T07:45:17;3.17;;;2.20;;
5758;SDS011;2904;48.788;9.196;2022-11-20T07:47:44;2.77;;;2.43;;
5758;SDS011;2904;48.788;9.196;2022-11-20T07:50:09;2.97;;;2.20;;
5758;SDS011;2904;48.788;9.196;2022-11-20T07:52:35;2.97;;;2.40;;
5758;SDS011;2904;48.788;9.196;2022-11-20T07:55:01;3.47;;;2.33;;
5758;SDS011;2904;48.788;9.196;2022-11-20T07:57:27;12.97;;;6.20;;
5758;SDS011;2904;48.788;9.196;2022-11-20T07:59:53;4.97;;;2.50;;
5758;SDS011;2904;48.788;9.196;2022-11-20T08:02:19;6.10;;;3.63;;
5758;SDS011;2904;48.788;9.196;2022-11-20T08:04:44;4.63;;;2.13;;
5758;SDS011;2904;48.788;9.196;2022-11-20T08:07:10;5.87;;;3.73;;
5758;SDS011;2904;48.788;9.196;2022-11-20T08:09:35;3.40;;;2.17;;
5758;SDS011;2904;48.788;9.196;2022-11-20T08:12:01;3.43;;;2.50;;
5758;SDS011;2904;48.788;9.196;2022-11-20T08:14:45;7.07;;;2.73;;
5758;SDS011;2904;48.788;9.196;2022-11-20T08:17:10;5.47;;;2.20;;
5758;SDS011;2904;48.788;9.196;2022-11-20T08:19:37;3.00;;;2.40;;
5758;SDS011;2904;48.788;9.196;2022-11-20T08:22:03;4.30;;;2.30;;
5758;SDS011;2904;48.788;9.196;2022-11-20T08:24:28;2.17;;;1.97;;
5758;SDS011;2904;48.788;9.196;2022-11-20T08:26:56;2.77;;;1.77;;
5758;SDS011;2904;48.788;9.196;2022-11-20T08:29:23;3.13;;;1.90;;
5758;SDS011;2904;48.788;9.196;2022-11-20T08:31:49;1.93;;;1.73;;
5758;SDS011;2904;48.788;9.196;2022-11-20T08:34:14;2.97;;;2.27;;
5758;SDS011;2904;48.788;9.196;2022-11-20T08:36:40;3.00;;;2.10;;
5758;SDS011;2904;48.788;9.196;2022-11-20T08:39:05;2.37;;;1.80;;
5758;SDS011;2904;48.788;9.196;2022-11-20T08:41:31;2.77;;;2.03;;
5758;SDS011;2904;48.788;9.196;2022-11-20T08:44:05;3.17;;;1.70;;
5758;SDS011;2904;48.788;9.196;2022-11-20T08:46:33;1.73;;;1.47;;
5758;SDS011;2904;48.788;9.196;2022-11-20T08:49:03;2.57;;;1.90;;
5758;SDS011;2904;48.788;9.196;2022-11-20T08:51:29;2.10;;;1.50;;
5758;SDS011;2904;48.788;9.196;2022-11-20T08:53:55;2.87;;;1.70;;
5758;SDS011;2904;48.788;9.196;2022-11-20T08:56:21;2.60;;;1.63;;
5758;SDS011;2904;48.788;9.196;2022-11-20T08:58:47;2.67;;;1.60;;
5758;SDS011;2904;48.788;9.196;2022-11-20T09:01:12;1.43;;;1.20;;
5758;SDS011;2904;48.788;9.196;2022-11-20T09:03:38;4.80;;;2.30;;
5758;SDS011;2904;48.788;9.196;2022-11-20T09:06:04;1.30;;;1.20;;
5758;SDS011;2904;48.788;9.196;2022-11-20T09:08:31;2.17;;;1.77;;
5758;SDS011;2904;48.788;9.196;2022-11-20T09:10:58;1.97;;;1.63;;
5758;SDS011;2904;48.788;9.196;2022-11-20T09:13:24;1.30;;;1.20;;
5758;SDS011;2904;48.788;9.196;2022-11-20T09:15:58;2.37;;;1.90;;
5758;SDS011;2904;48.788;9.196;2022-11-20T09:18:26;1.77;;;1.67;;
5758;SDS011;2904;48.788;9.196;2022-11-20T09:20:56;2.20;;;1.80;;
5758;SDS011;2904;48.788;9.196;2022-11-20T09:23:26;4.67;;;2.40;;
5758;SDS011;2904;48.788;9.196;2022-11-20T09:25:55;2.40;;;1.20;;
5758;SDS011;2904;48.788;9.196;2022-11-20T09:28:24;2.10;;;1.57;;
5758;SDS011;2904;48.788;9.196;2022-11-20T09:30:51;2.80;;;1.50;;
5758;SDS011;2904;48.788;9.196;2022-11-20T09:33:16;1.50;;;1.40;;
5758;SDS011;2904;48.788;9.196;2022-11-20T09:35:42;1.97;;;1.37;;
5758;SDS011;2904;48.788;9.196;2022-11-20T09:38:08;3.23;;;1.50;;
5758;SDS011;2904;48.788;9.196;2022-11-20T09:40:36;2.00;;;1.07;;
5758;SDS011;2904;48.788;9.196;2022-11-20T09:43:28;3.30;;;1.20;;
5758;SDS011;2904;48.788;9.196;2022-11-20T09:46:22;1.63;;;0.90;;
5758;SDS011;2904;48.788;9.196;2022-11-20T09:49:07;1.00;;;0.90;;
5758;SDS011;2904;48.788;9.196;2022-11-20T09:52:19;0.87;;;0.87;;
5758;SDS011;2904;48.788;9.196;2022-11-20T09:54:46;0.90;;;0.90;;
5758;SDS011;2904;48.788;9.196;2022-11-20T09:57:14;1.23;;;1.10;;
5758;SDS011;2904;48.788;9.196;2022-11-20T09:59:50;0.80;;;0.80;;
5758;SDS011;2904;48.788;9.196;2022-11-20T10:02:28;0.83;;;0.83;;
5758;SDS011;2904;48.788;9.196;2022-11-20T10:05:06;0.80;;;0.80;;
5758;SDS011;2904;48.788;9.196;2022-11-20T10:08:19;0.80;;;0.80;;
5758;SDS011;2904;48.788;9.196;2022-11-20T10:11:04;0.90;;;0.80;;
5758;SDS011;2904;48.788;9.196;2022-11-20T10:13:35;0.70;;;0.70;;
5758;SDS011;2904;48.788;9.196;2022-11-20T10:24:34;1.00;;;0.90;;
5758;SDS011;2904;48.788;9.196;2022-11-20T10:30:17;1.13;;;1.03;;
5758;SDS011;2904;48.788;9.196;2022-11-20T10:32:48;1.20;;;1.10;;
5758;SDS011;2904;48.788;9.196;2022-11-20T10:35:34;1.90;;;1.00;;
5758;SDS011;2904;48.788;9.196;2022-11-20T10:38:02;1.50;;;1.40;;
5758;SDS011;2904;48.788;9.196;2022-11-20T10:40:35;1.30;;;1.20;;
5758;SDS011;2904;48.788;9.196;2022-11-20T10:43:19;1.30;;;1.20;;
5758;SDS011;2904;48.788;9.196;2022-11-20T10:46:03;3.07;;;1.40;;
5758;SDS011;2904;48.788;9.196;2022-11-20T10:48:31;1.50;;;1.40;;
5758;SDS011;2904;48.788;9.196;2022-11-20T10:50:59;1.23;;;1.13;;
5758;SDS011;2904;48.788;9.196;2022-11-20T11:00:15;1.20;;;1.00;;
5758;SDS011;2904;48.788;9.196;2022-11-20T11:02:48;1.17;;;1.07;;
5758;SDS011;2904;48.788;9.196;2022-11-20T11:05:22;1.40;;;1.30;;
5758;SDS011;2904;48.788;9.196;2022-11-20T11:07:51;3.27;;;2.00;;
5758;SDS011;2904;48.788;9.196;2022-11-20T11:13:06;1.40;;;1.30;;
5758;SDS011;2904;48.788;9.196;2022-11-20T11:15:39;1.53;;;1.30;;
5758;SDS011;2904;48.788;9.196;2022-11-20T11:18:08;1.60;;;1.33;;
5758;SDS011;2904;48.788;9.196;2022-11-20T11:20:35;2.90;;;1.87;;
5758;SDS011;2904;48.788;9.196;2022-11-20T11:23:01;3.73;;;1.80;;
5758;SDS011;2904;48.788;9.196;2022-11-20T11:25:29;3.07;;;2.30;;
5758;SDS011;2904;48.788;9.196;2022-11-20T11:28:21;5.00;;;2.23;;
5758;SDS011;2904;48.788;9.196;2022-11-20T11:30:50;2.60;;;1.67;;
5758;SDS011;2904;48.788;9.196;2022-11-20T11:33:20;2.57;;;1.60;;
5758;SDS011;2904;48.788;9.196;2022-11-20T11:35:57;2.67;;;1.73;;
5758;SDS011;2904;48.788;9.196;2022-11-20T11:38:34;2.60;;;1.70;;
5758;SDS011;2904;48.788;9.196;2022-11-20T11:41:00;2.73;;;1.80;;
5758;SDS011;2904;48.788;9.196;2022-11-20T11:43:29;3.50;;;1.60;;
5758;SDS011;2904;48.788;9.196;2022-11-20T11:46:27;2.90;;;1.73;;
5758;SDS011;2904;48.788;9.196;2022-11-20T11:49:17;7.00;;;2.90;;
5758;SDS011;2904;48.788;9.196;2022-11-20T11:51:51;21.90;;;11.83;;
5758;SDS011;2904;48.788;9.196;2022-11-20T11:54:23;11.17;;;4.70;;
5758;SDS011;2904;48.788;9.196;2022-11-20T11:57:20;4.33;;;2.93;;
5758;SDS011;2904;48.788;9.196;2022-11-20T12:03:03;3.67;;;1.90;;
5758;SDS011;2904;48.788;9.196;2022-11-20T12:05:59;2.87;;;1.73;;
5758;SDS011;2904;48.788;9.196;2022-11-20T12:08:43;2.70;;;1.57;;
5758;SDS011;2904;48.788;9.196;2022-11-20T12:11:12;3.97;;;1.70;;
5758;SDS011;2904;48.788;9.196;2022-11-20T12:13:57;5.07;;;1.60;;
5758;SDS011;2904;48.788;9.196;2022-11-20T12:16:28;1.47;;;1.37;;
5758;SDS011;2904;48.788;9.196;2022-11-20T12:19:00;1.63;;;1.20;;
5758;SDS011;2904;48.788;9.196;2022-11-20T12:30:03;1.63;;;1.30;;
5758;SDS011;2904;48.788;9.196;2022-11-20T12:39:42;1.90;;;1.20;;
5758;SDS011;2904;48.788;9.196;2022-11-20T12:42:21;2.77;;;1.77;;
5758;SDS011;2904;48.788;9.196;2022-11-20T12:45:18;1.60;;;1.20;;
5758;SDS011;2904;48.788;9.196;2022-11-20T12:48:48;1.87;;;1.17;;
5758;SDS011;2904;48.788;9.196;2022-11-20T13:00:26;1.70;;;1.13;;
5758;SDS011;2904;48.788;9.196;2022-11-20T13:15:08;2.23;;;1.10;;
5758;SDS011;2904;48.788;9.196;2022-11-20T13:17:46;1.37;;;1.00;;
5758;SDS011;2904;48.788;9.196;2022-11-20T13:20:16;0.80;;;0.80;;
5758;SDS011;2904;48.788;9.196;2022-11-20T13:22:47;1.87;;;1.07;;
5758;SDS011;2904;48.788;9.196;2022-11-20T13:28:05;1.27;;;1.00;;
5758;SDS011;2904;48.788;9.196;2022-11-20T13:30:52;2.20;;;1.47;;
5758;SDS011;2904;48.788;9.196;2022-11-20T13:33:36;2.27;;;0.90;;
5758;SDS011;2904;48.788;9.196;2022-11-20T13:36:07;1.00;;;0.90;;
5758;SDS011;2904;48.788;9.196;2022-11-20T13:38:48;1.30;;;0.90;;
5758;SDS011;2904;48.788;9.196;2022-11-20T13:41:33;3.67;;;1.50;;
5758;SDS011;2904;48.788;9.196;2022-11-20T13:44:10;2.87;;;1.30;;
5758;SDS011;2904;48.788;9.196;2022-11-20T13:46:42;2.77;;;1.37;;
5758;SDS011;2904;48.788;9.196;2022-11-20T13:49:10;12.23;;;8.03;;
5758;SDS011;2904;48.788;9.196;2022-11-20T13:57:36;2.40;;;1.00;;
5758;SDS011;2904;48.788;9.196;2022-11-20T14:00:15;1.30;;;1.07;;
5758;SDS011;2904;48.788;9.196;2022-11-20T14:02:41;6.07;;;1.10;;
5758;SDS011;2904;48.788;9.196;2022-11-20T14:05:15;1.00;;;0.97;;
5758;SDS011;2904;48.788;9.196;2022-11-20T14:07:45;4.87;;;2.57;;
5758;SDS011;2904;48.788;9.196;2022-11-20T14:10:47;1.93;;;1.23;;
5758;SDS011;2904;48.788;9.196;2022-11-20T14:13:17;2.27;;;1.27;;
5758;SDS011;2904;48.788;9.196;2022-11-20T14:15:43;2.57;;;1.00;;
5758;SDS011;2904;48.788;9.196;2022-11-20T14:18:19;1.30;;;1.20;;
5758;SDS011;2904;48.788;9.196;2022-11-20T14:20:49;2.17;;;1.20;;
5758;SDS011;2904;48.788;9.196;2022-11-20T14:23:23;2.10;;;1.30;;
5758;SDS011;2904;48.788;9.196;2022-11-20T14:25:51;1.77;;;1.40;;
5758;SDS011;2904;48.788;9.196;2022-11-20T14:28:50;3.60;;;1.50;;
5758;SDS011;2904;48.788;9.196;2022-11-20T14:31:34;3.67;;;1.50;;
5758;SDS011;2904;48.788;9.196;2022-11-20T14:34:01;2.20;;;1.27;;
5758;SDS011;2904;48.788;9.196;2022-11-20T14:36:27;1.93;;;1.40;;
5758;SDS011;2904;48.788;9.196;2022-11-20T14:38:53;2.10;;;1.30;;
5758;SDS011;2904;48.788;9.196;2022-11-20T14:41:23;3.70;;;1.60;;
5758;SDS011;2904;48.788;9.196;2022-11-20T14:43:58;2.47;;;1.40;;
5758;SDS011;2904;48.788;9.196;2022-11-20T14:46:25;4.07;;;1.53;;
5758;SDS011;2904;48.788;9.196;2022-11-20T14:48:55;1.43;;;1.30;;
5758;SDS011;2904;48.788;9.196;2022-11-20T14:51:32;1.60;;;1.50;;
5758;SDS011;2904;48.788;9.196;2022-11-20T14:54:11;3.27;;;1.47;;
5758;SDS011;2904;48.788;9.196;2022-11-20T14:56:41;3.63;;;1.50;;
5758;SDS011;2904;48.788;9.196;2022-11-20T14:59:08;6.97;;;1.80;;
5758;SDS011;2904;48.788;9.196;2022-11-20T15:01:34;4.73;;;1.50;;
5758;SDS011;2904;48.788;9.196;2022-11-20T15:04:10;4.67;;;1.60;;
5758;SDS011;2904;48.788;9.196;2022-11-20T15:06:36;1.93;;;1.47;;
5758;SDS011;2904;48.788;9.196;2022-11-20T15:09:14;3.23;;;1.60;;
5758;SDS011;2904;48.788;9.196;2022-11-20T15:11:40;6.70;;;2.03;;
5758;SDS011;2904;48.788;9.196;2022-11-20T15:14:24;5.27;;;1.97;;
5758;SDS011;2904;48.788;9.196;2022-11-20T15:16:51;3.70;;;1.60;;
5758;SDS011;2904;48.788;9.196;2022-11-20T15:19:18;2.10;;;1.37;;
5758;SDS011;2904;48.788;9.196;2022-11-20T15:21:47;1.90;;;1.60;;
5758;SDS011;2904;48.788;9.196;2022-11-20T15:24:13;5.40;;;2.83;;
5758;SDS011;2904;48.788;9.196;2022-11-20T15:26:39;6.93;;;3.30;;
5758;SDS011;2904;48.788;9.196;2022-11-20T15:29:07;6.80;;;3.77;;
5758;SDS011;2904;48.788;9.196;2022-11-20T15:31:36;4.37;;;2.83;;
5758;SDS011;2904;48.788;9.196;2022-11-20T15:34:02;4.50;;;1.70;;
5758;SDS011;2904;48.788;9.196;2022-11-20T15:36:31;3.57;;;1.90;;
5758;SDS011;2904;48.788;9.196;2022-11-20T15:38:57;2.33;;;1.40;;
5758;SDS011;2904;48.788;9.196;2022-11-20T15:41:22;5.87;;;3.43;;
5758;SDS011;2904;48.788;9.196;2022-11-20T15:43:48;5.23;;;3.20;;
5758;SDS011;2904;48.788;9.196;2022-11-20T15:46:15;2.97;;;1.90;;
5758;SDS011;2904;48.788;9.196;2022-11-20T15:48:51;2.97;;;1.80;;
5758;SDS011;2904;48.788;9.196;2022-11-20T15:51:38;4.90;;;1.70;;
5758;SDS011;2904;48.788;9.196;2022-11-20T15:54:11;3.20;;;1.80;;
5758;SDS011;2904;48.788;9.196;2022-11-20T15:56:37;3.43;;;1.70;;
5758;SDS011;2904;48.788;9.196;2022-11-20T15:59:03;3.23;;;2.10;;
5758;SDS011;2904;48.788;9.196;2022-11-20T16:01:29;2.87;;;1.90;;
5758;SDS011;2904;48.788;9.196;2022-11-20T16:03:55;4.43;;;2.20;;
5758;SDS011;2904;48.788;9.196;2022-11-20T16:06:22;2.50;;;1.80;;
5758;SDS011;2904;48.788;9.196;2022-11-20T16:08:48;2.57;;;1.80;;
5758;SDS011;2904;48.788;9.196;2022-11-20T16:11:15;4.30;;;2.00;;
5758;SDS011;2904;48.788;9.196;2022-11-20T16:13:42;1.83;;;1.50;;
5758;SDS011;2904;48.788;9.196;2022-11-20T16:16:30;2.63;;;1.60;;
5758;SDS011;2904;48.788;9.196;2022-11-20T16:18:58;53.33;;;25.07;;
5758;SDS011;2904;48.788;9.196;2022-11-20T16:21:25;5.50;;;2.80;;
5758;SDS011;2904;48.788;9.196;2022-11-20T16:23:58;3.70;;;2.30;;
5758;SDS011;2904;48.788;9.196;2022-11-20T16:26:24;6.60;;;3.60;;
5758;SDS011;2904;48.788;9.196;2022-11-20T16:28:50;23.40;;;11.33;;
5758;SDS011;2904;48.788;9.196;2022-11-20T16:31:17;4.33;;;2.80;;
5758;SDS011;2904;48.788;9.196;2022-11-20T16:33:53;15.37;;;9.77;;
5758;SDS011;2904;48.788;9.196;2022-11-20T16:36:22;5.90;;;3.73;;
5758;SDS011;2904;48.788;9.196;2022-11-20T16:38:52;2.30;;;2.00;;
5758;SDS011;2904;48.788;9.196;2022-11-20T16:41:18;6.07;;;2.20;;
5758;SDS011;2904;48.788;9.196;2022-11-20T16:43:51;2.63;;;2.23;;